Alice International Airport
KALI : now visible

Aeroporto :











RITROVATECI SU...

 
LOGIN :

Iscrizione | Disclaimer

   EN    FR    IT 

 









Sommario :    VFR   VFR Marginale   IFR   IFR Intensivo   IFR Molto Intensivo
Visibilità : 
Base nubi : 
>= 8 km
>= 3000ft
5 / 8 km
1000 / 3000 ft
1500m / 5 km
500 / 1000 ft
800 / 1500m
200 / 500 ft
< 800m
< 200 ft
Simboli :   Temporali  Nebbia  Neve Forte  Precipitazioni Forti  Vento > 20 kt







- Altitudine del aeroporto : 178 ft


KALI - Alice International

ULTIMO METAR :
  • 222153Z AUTO 13017KT 10SM CLR 27/18 A2994 RMK AO2 SLP136 T02670178

METARs OBSOLETI :
  • 222053Z AUTO 12013KT 10SM BKN040 27/18 A2996 RMK AO2 SLP142 T02720178 55008
  • 221953Z AUTO 14015G24KT 10SM BKN039 BKN055 28/18 A2996 RMK AO2 PK WND 14026/1912 SLP141 T02780178

TAF KALI
Valido dal 22 a 18 ore il 23 a 18 ore UTC


221736Z 2218/2318 14018G25KT P6SM SCT035 BKN250
FM230200 12012KT P6SM BKN025 OVC200
TEMPO 2302/2304 SCT025 BKN250
FM230600 11006KT P6SM BKN012 OVC150
TEMPO 2310/2312 5SM -DZ BR OVC009
FM231400 15012G18KT P6SM VCSH BKN025 OVC100
FM231700 14018G25KT P6SM VCTS BKN030CB OVC100
FIR KZHU / America del Nord



MetMap, La meteo Aeronautica in un colpo d'occhio ! - Copyright ORBIFLY Dicembre 2007 - Disclaimer

ORBIFLY MET'MAP TEAM :

Programmazione e sviluppo : Alexandra Zaïnal
Concezione e sviluppo : Baudouin d'Aumeries
Co-Programmazione e sviluppo : Marc-Olivier Méhu
Supporto tecnico e logistico : Manuel Goepfert
Aiuto per la traduzione : Arnaldo La Scala

Contatto : metmap@orbifly.com




FONTI E CREDITI :

   NOAA       Earth
Advisory